sensor_id;sensor_type;location;lat;lon;timestamp;temperature;humidity
68439;SHT31;55421;51.600;5.718;2023-11-18T00:00:36;5.36;89.70
68439;SHT31;55421;51.600;5.718;2023-11-18T00:03:22;5.35;89.71
68439;SHT31;55421;51.600;5.718;2023-11-18T00:05:49;5.34;89.75
68439;SHT31;55421;51.600;5.718;2023-11-18T00:08:16;5.34;89.80
68439;SHT31;55421;51.600;5.718;2023-11-18T00:10:42;5.35;89.83
68439;SHT31;55421;51.600;5.718;2023-11-18T00:13:09;5.34;89.84
68439;SHT31;55421;51.600;5.718;2023-11-18T00:15:35;5.33;89.83
68439;SHT31;55421;51.600;5.718;2023-11-18T00:18:02;5.31;89.80
68439;SHT31;55421;51.600;5.718;2023-11-18T00:20:28;5.29;89.80
68439;SHT31;55421;51.600;5.718;2023-11-18T00:22:57;5.27;89.82
68439;SHT31;55421;51.600;5.718;2023-11-18T00:25:23;5.27;89.85
68439;SHT31;55421;51.600;5.718;2023-11-18T00:27:50;5.24;89.88
68439;SHT31;55421;51.600;5.718;2023-11-18T00:30:16;5.22;89.90
68439;SHT31;55421;51.600;5.718;2023-11-18T00:32:43;5.21;89.90
68439;SHT31;55421;51.600;5.718;2023-11-18T00:35:10;5.19;89.91
68439;SHT31;55421;51.600;5.718;2023-11-18T00:37:36;5.17;89.90
68439;SHT31;55421;51.600;5.718;2023-11-18T00:40:03;5.17;89.91
68439;SHT31;55421;51.600;5.718;2023-11-18T00:42:30;5.14;89.90
68439;SHT31;55421;51.600;5.718;2023-11-18T00:44:57;5.13;89.90
68439;SHT31;55421;51.600;5.718;2023-11-18T00:47:23;5.12;89.94
68439;SHT31;55421;51.600;5.718;2023-11-18T00:49:50;5.11;89.99
68439;SHT31;55421;51.600;5.718;2023-11-18T00:52:18;5.09;90.00
68439;SHT31;55421;51.600;5.718;2023-11-18T00:54:45;5.07;89.99
68439;SHT31;55421;51.600;5.718;2023-11-18T00:57:12;5.06;90.00
68439;SHT31;55421;51.600;5.718;2023-11-18T00:59:41;5.03;90.00
68439;SHT31;55421;51.600;5.718;2023-11-18T01:02:09;5.01;90.00
68439;SHT31;55421;51.600;5.718;2023-11-18T01:04:36;5.00;90.00
68439;SHT31;55421;51.600;5.718;2023-11-18T01:07:03;4.99;90.00
68439;SHT31;55421;51.600;5.718;2023-11-18T01:09:29;4.97;90.01
68439;SHT31;55421;51.600;5.718;2023-11-18T01:12:02;4.97;90.06
68439;SHT31;55421;51.600;5.718;2023-11-18T01:14:30;4.98;90.10
68439;SHT31;55421;51.600;5.718;2023-11-18T01:16:56;4.98;90.19
68439;SHT31;55421;51.600;5.718;2023-11-18T01:19:23;4.99;90.20
68439;SHT31;55421;51.600;5.718;2023-11-18T01:21:49;5.00;90.20
68439;SHT31;55421;51.600;5.718;2023-11-18T01:24:19;5.00;90.24
68439;SHT31;55421;51.600;5.718;2023-11-18T01:26:46;5.02;90.30
68439;SHT31;55421;51.600;5.718;2023-11-18T01:29:12;5.02;90.30
68439;SHT31;55421;51.600;5.718;2023-11-18T01:31:39;5.03;90.30
68439;SHT31;55421;51.600;5.718;2023-11-18T01:34:07;5.06;90.33
68439;SHT31;55421;51.600;5.718;2023-11-18T01:36:33;5.06;90.38
68439;SHT31;55421;51.600;5.718;2023-11-18T01:39:00;5.07;90.31
68439;SHT31;55421;51.600;5.718;2023-11-18T01:41:26;5.08;90.30
68439;SHT31;55421;51.600;5.718;2023-11-18T01:43:53;5.07;90.30
68439;SHT31;55421;51.600;5.718;2023-11-18T01:46:20;5.07;90.31
68439;SHT31;55421;51.600;5.718;2023-11-18T01:48:49;5.06;90.25
68439;SHT31;55421;51.600;5.718;2023-11-18T01:51:17;5.06;90.24
68439;SHT31;55421;51.600;5.718;2023-11-18T01:53:46;5.05;90.27
68439;SHT31;55421;51.600;5.718;2023-11-18T01:56:14;5.05;90.22
68439;SHT31;55421;51.600;5.718;2023-11-18T01:58:41;5.06;90.22
68439;SHT31;55421;51.600;5.718;2023-11-18T02:01:08;5.05;90.24
68439;SHT31;55421;51.600;5.718;2023-11-18T02:03:36;5.06;90.24
68439;SHT31;55421;51.600;5.718;2023-11-18T02:06:04;5.07;90.30
68439;SHT31;55421;51.600;5.718;2023-11-18T02:08:33;5.07;90.30
68439;SHT31;55421;51.600;5.718;2023-11-18T02:11:05;5.08;90.29
68439;SHT31;55421;51.600;5.718;2023-11-18T02:13:57;5.08;90.30
68439;SHT31;55421;51.600;5.718;2023-11-18T02:16:31;5.08;90.33
68439;SHT31;55421;51.600;5.718;2023-11-18T02:18:58;5.10;90.39
68439;SHT31;55421;51.600;5.718;2023-11-18T02:21:26;5.12;90.43
68439;SHT31;55421;51.600;5.718;2023-11-18T02:23:55;5.14;90.49
68439;SHT31;55421;51.600;5.718;2023-11-18T02:26:23;5.16;90.51
68439;SHT31;55421;51.600;5.718;2023-11-18T02:28:50;5.18;90.57
68439;SHT31;55421;51.600;5.718;2023-11-18T02:31:20;5.20;90.60
68439;SHT31;55421;51.600;5.718;2023-11-18T02:34:00;5.22;90.63
68439;SHT31;55421;51.600;5.718;2023-11-18T02:36:44;5.26;90.67
68439;SHT31;55421;51.600;5.718;2023-11-18T02:39:20;5.27;90.70
68439;SHT31;55421;51.600;5.718;2023-11-18T02:41:55;5.29;90.72
68439;SHT31;55421;51.600;5.718;2023-11-18T02:44:23;5.31;90.79
68439;SHT31;55421;51.600;5.718;2023-11-18T02:46:51;5.33;90.80
68439;SHT31;55421;51.600;5.718;2023-11-18T02:49:18;5.33;90.80
68439;SHT31;55421;51.600;5.718;2023-11-18T02:51:44;5.35;90.89
68439;SHT31;55421;51.600;5.718;2023-11-18T02:54:11;5.36;90.90
68439;SHT31;55421;51.600;5.718;2023-11-18T02:56:38;5.38;90.91
68439;SHT31;55421;51.600;5.718;2023-11-18T02:59:05;5.39;90.93
68439;SHT31;55421;51.600;5.718;2023-11-18T03:01:32;5.40;90.99
68439;SHT31;55421;51.600;5.718;2023-11-18T03:04:02;5.40;90.99
68439;SHT31;55421;51.600;5.718;2023-11-18T03:06:28;5.41;90.99
68439;SHT31;55421;51.600;5.718;2023-11-18T03:08:55;5.41;91.00
68439;SHT31;55421;51.600;5.718;2023-11-18T03:11:21;5.41;90.98
68439;SHT31;55421;51.600;5.718;2023-11-18T03:13:48;5.42;91.00
68439;SHT31;55421;51.600;5.718;2023-11-18T03:16:15;5.42;91.03
68439;SHT31;55421;51.600;5.718;2023-11-18T03:18:42;5.42;91.03
68439;SHT31;55421;51.600;5.718;2023-11-18T03:21:12;5.42;91.01
68439;SHT31;55421;51.600;5.718;2023-11-18T03:23:39;5.42;91.02
68439;SHT31;55421;51.600;5.718;2023-11-18T03:26:08;5.40;91.00
68439;SHT31;55421;51.600;5.718;2023-11-18T03:28:38;5.40;91.00
68439;SHT31;55421;51.600;5.718;2023-11-18T03:31:06;5.39;91.00
68439;SHT31;55421;51.600;5.718;2023-11-18T03:33:33;5.39;91.00
68439;SHT31;55421;51.600;5.718;2023-11-18T03:36:00;5.40;91.00
68439;SHT31;55421;51.600;5.718;2023-11-18T03:38:26;5.40;91.04
68439;SHT31;55421;51.600;5.718;2023-11-18T03:40:54;5.40;91.02
68439;SHT31;55421;51.600;5.718;2023-11-18T03:43:22;5.41;91.01
68439;SHT31;55421;51.600;5.718;2023-11-18T03:45:49;5.41;91.03
68439;SHT31;55421;51.600;5.718;2023-11-18T03:48:15;5.42;91.02
68439;SHT31;55421;51.600;5.718;2023-11-18T03:50:44;5.43;91.00
68439;SHT31;55421;51.600;5.718;2023-11-18T03:53:11;5.43;91.00
68439;SHT31;55421;51.600;5.718;2023-11-18T03:55:37;5.43;91.01
68439;SHT31;55421;51.600;5.718;2023-11-18T03:58:04;5.43;91.00
68439;SHT31;55421;51.600;5.718;2023-11-18T04:00:30;5.44;91.03
68439;SHT31;55421;51.600;5.718;2023-11-18T04:02:58;5.44;91.09
68439;SHT31;55421;51.600;5.718;2023-11-18T04:05:25;5.45;91.06
68439;SHT31;55421;51.600;5.718;2023-11-18T04:07:51;5.45;91.06
68439;SHT31;55421;51.600;5.718;2023-11-18T04:10:18;5.45;91.04
68439;SHT31;55421;51.600;5.718;2023-11-18T04:12:46;5.45;91.02
68439;SHT31;55421;51.600;5.718;2023-11-18T04:15:14;5.45;91.00
68439;SHT31;55421;51.600;5.718;2023-11-18T04:17:41;5.43;91.00
68439;SHT31;55421;51.600;5.718;2023-11-18T04:20:10;5.43;91.00
68439;SHT31;55421;51.600;5.718;2023-11-18T04:22:38;5.42;91.02
68439;SHT31;55421;51.600;5.718;2023-11-18T04:25:11;5.42;91.05
68439;SHT31;55421;51.600;5.718;2023-11-18T04:27:38;5.43;91.10
68439;SHT31;55421;51.600;5.718;2023-11-18T04:30:05;5.44;91.10
68439;SHT31;55421;51.600;5.718;2023-11-18T04:32:34;5.43;91.10
68439;SHT31;55421;51.600;5.718;2023-11-18T04:35:01;5.45;91.10
68439;SHT31;55421;51.600;5.718;2023-11-18T04:37:33;5.45;91.18
68439;SHT31;55421;51.600;5.718;2023-11-18T04:40:01;5.46;91.17
68439;SHT31;55421;51.600;5.718;2023-11-18T04:42:28;5.47;91.18
68439;SHT31;55421;51.600;5.718;2023-11-18T04:44:57;5.47;91.12
68439;SHT31;55421;51.600;5.718;2023-11-18T04:47:24;5.49;91.12
68439;SHT31;55421;51.600;5.718;2023-11-18T04:49:53;5.49;91.11
68439;SHT31;55421;51.600;5.718;2023-11-18T04:52:20;5.50;91.16
68439;SHT31;55421;51.600;5.718;2023-11-18T04:54:46;5.50;91.16
68439;SHT31;55421;51.600;5.718;2023-11-18T04:57:14;5.50;91.13
68439;SHT31;55421;51.600;5.718;2023-11-18T04:59:41;5.50;91.12
68439;SHT31;55421;51.600;5.718;2023-11-18T05:02:09;5.51;91.19
68439;SHT31;55421;51.600;5.718;2023-11-18T05:04:36;5.52;91.20
68439;SHT31;55421;51.600;5.718;2023-11-18T05:07:02;5.54;91.22
68439;SHT31;55421;51.600;5.718;2023-11-18T05:09:30;5.53;91.23
68439;SHT31;55421;51.600;5.718;2023-11-18T05:11:57;5.54;91.27
68439;SHT31;55421;51.600;5.718;2023-11-18T05:14:25;5.56;91.29
68439;SHT31;55421;51.600;5.718;2023-11-18T05:16:52;5.57;91.30
68439;SHT31;55421;51.600;5.718;2023-11-18T05:19:19;5.57;91.30
68439;SHT31;55421;51.600;5.718;2023-11-18T05:21:46;5.59;91.31
68439;SHT31;55421;51.600;5.718;2023-11-18T05:24:15;5.59;91.31
68439;SHT31;55421;51.600;5.718;2023-11-18T05:26:44;5.61;91.32
68439;SHT31;55421;51.600;5.718;2023-11-18T05:29:10;5.62;91.37
68439;SHT31;55421;51.600;5.718;2023-11-18T05:31:42;5.63;91.40
68439;SHT31;55421;51.600;5.718;2023-11-18T05:34:09;5.64;91.40
68439;SHT31;55421;51.600;5.718;2023-11-18T05:36:36;5.66;91.40
68439;SHT31;55421;51.600;5.718;2023-11-18T05:39:03;5.65;91.40
68439;SHT31;55421;51.600;5.718;2023-11-18T05:41:35;5.66;91.41
68439;SHT31;55421;51.600;5.718;2023-11-18T05:44:02;5.66;91.41
68439;SHT31;55421;51.600;5.718;2023-11-18T05:46:29;5.67;91.43
68439;SHT31;55421;51.600;5.718;2023-11-18T05:48:55;5.68;91.48
68439;SHT31;55421;51.600;5.718;2023-11-18T05:51:25;5.68;91.49
68439;SHT31;55421;51.600;5.718;2023-11-18T05:53:53;5.69;91.49
68439;SHT31;55421;51.600;5.718;2023-11-18T05:56:19;5.71;91.50
68439;SHT31;55421;51.600;5.718;2023-11-18T05:58:48;5.71;91.49
68439;SHT31;55421;51.600;5.718;2023-11-18T06:01:15;5.71;91.50
68439;SHT31;55421;51.600;5.718;2023-11-18T06:03:43;5.72;91.50
68439;SHT31;55421;51.600;5.718;2023-11-18T06:06:10;5.73;91.50
68439;SHT31;55421;51.600;5.718;2023-11-18T06:08:40;5.73;91.54
68439;SHT31;55421;51.600;5.718;2023-11-18T06:11:07;5.74;91.56
68439;SHT31;55421;51.600;5.718;2023-11-18T06:16:16;5.76;91.60
68439;SHT31;55421;51.600;5.718;2023-11-18T06:18:49;5.76;91.60
68439;SHT31;55421;51.600;5.718;2023-11-18T06:21:22;5.77;91.60
68439;SHT31;55421;51.600;5.718;2023-11-18T06:23:51;5.78;91.60
68439;SHT31;55421;51.600;5.718;2023-11-18T06:26:18;5.79;91.61
68439;SHT31;55421;51.600;5.718;2023-11-18T06:28:44;5.78;91.63
68439;SHT31;55421;51.600;5.718;2023-11-18T06:31:13;5.80;91.63
68439;SHT31;55421;51.600;5.718;2023-11-18T06:33:41;5.80;91.62
68439;SHT31;55421;51.600;5.718;2023-11-18T06:36:18;5.81;91.66
68439;SHT31;55421;51.600;5.718;2023-11-18T06:38:51;5.82;91.64
68439;SHT31;55421;51.600;5.718;2023-11-18T06:41:20;5.83;91.66
68439;SHT31;55421;51.600;5.718;2023-11-18T06:43:59;5.84;91.65
68439;SHT31;55421;51.600;5.718;2023-11-18T06:46:35;5.84;91.64
68439;SHT31;55421;51.600;5.718;2023-11-18T06:49:05;5.85;91.62
68439;SHT31;55421;51.600;5.718;2023-11-18T06:51:41;5.85;91.67
68439;SHT31;55421;51.600;5.718;2023-11-18T06:54:08;5.86;91.67
68439;SHT31;55421;51.600;5.718;2023-11-18T06:56:36;5.87;91.62
68439;SHT31;55421;51.600;5.718;2023-11-18T06:59:05;5.89;91.62
68439;SHT31;55421;51.600;5.718;2023-11-18T07:01:39;5.90;91.62
68439;SHT31;55421;51.600;5.718;2023-11-18T07:04:09;5.90;91.60
68439;SHT31;55421;51.600;5.718;2023-11-18T07:06:36;5.91;91.67
68439;SHT31;55421;51.600;5.718;2023-11-18T07:09:07;5.91;91.62
68439;SHT31;55421;51.600;5.718;2023-11-18T07:11:39;5.93;91.60
68439;SHT31;55421;51.600;5.718;2023-11-18T07:14:10;5.93;91.60
68439;SHT31;55421;51.600;5.718;2023-11-18T07:16:38;5.94;91.60
68439;SHT31;55421;51.600;5.718;2023-11-18T07:19:05;5.95;91.60
68439;SHT31;55421;51.600;5.718;2023-11-18T07:21:33;5.96;91.60
68439;SHT31;55421;51.600;5.718;2023-11-18T07:24:00;5.96;91.60
68439;SHT31;55421;51.600;5.718;2023-11-18T07:26:28;5.96;91.60
68439;SHT31;55421;51.600;5.718;2023-11-18T07:28:55;5.97;91.60
68439;SHT31;55421;51.600;5.718;2023-11-18T07:31:22;5.97;91.58
68439;SHT31;55421;51.600;5.718;2023-11-18T07:33:49;5.98;91.60
68439;SHT31;55421;51.600;5.718;2023-11-18T07:36:16;5.99;91.59
68439;SHT31;55421;51.600;5.718;2023-11-18T07:38:46;6.00;91.59
68439;SHT31;55421;51.600;5.718;2023-11-18T07:41:13;6.00;91.58
68439;SHT31;55421;51.600;5.718;2023-11-18T07:43:53;6.02;91.59
68439;SHT31;55421;51.600;5.718;2023-11-18T07:46:22;6.04;91.53
68439;SHT31;55421;51.600;5.718;2023-11-18T07:48:49;6.06;91.50
68439;SHT31;55421;51.600;5.718;2023-11-18T07:51:21;6.06;91.50
68439;SHT31;55421;51.600;5.718;2023-11-18T07:53:49;6.08;91.50
68439;SHT31;55421;51.600;5.718;2023-11-18T07:56:15;6.11;91.45
68439;SHT31;55421;51.600;5.718;2023-11-18T07:58:43;6.13;91.40
68439;SHT31;55421;51.600;5.718;2023-11-18T08:01:13;6.14;91.40
68439;SHT31;55421;51.600;5.718;2023-11-18T08:03:44;6.17;91.37
68439;SHT31;55421;51.600;5.718;2023-11-18T08:06:10;6.16;91.33
68439;SHT31;55421;51.600;5.718;2023-11-18T08:08:38;6.15;91.30
68439;SHT31;55421;51.600;5.718;2023-11-18T08:11:05;6.16;91.30
68439;SHT31;55421;51.600;5.718;2023-11-18T08:13:32;6.16;91.30
68439;SHT31;55421;51.600;5.718;2023-11-18T08:16:00;6.17;91.28
68439;SHT31;55421;51.600;5.718;2023-11-18T08:18:27;6.17;91.26
68439;SHT31;55421;51.600;5.718;2023-11-18T08:20:57;6.18;91.29
68439;SHT31;55421;51.600;5.718;2023-11-18T08:23:23;6.18;91.30
68439;SHT31;55421;51.600;5.718;2023-11-18T08:25:51;6.18;91.29
68439;SHT31;55421;51.600;5.718;2023-11-18T08:28:17;6.18;91.29
68439;SHT31;55421;51.600;5.718;2023-11-18T08:30:45;6.18;91.30
68439;SHT31;55421;51.600;5.718;2023-11-18T08:33:15;6.18;91.30
68439;SHT31;55421;51.600;5.718;2023-11-18T08:35:41;6.18;91.30
68439;SHT31;55421;51.600;5.718;2023-11-18T08:38:08;6.18;91.30
68439;SHT31;55421;51.600;5.718;2023-11-18T08:40:38;6.19;91.30
68439;SHT31;55421;51.600;5.718;2023-11-18T08:43:05;6.19;91.30
68439;SHT31;55421;51.600;5.718;2023-11-18T08:45:33;6.20;91.30
68439;SHT31;55421;51.600;5.718;2023-11-18T08:48:01;6.22;91.30
68439;SHT31;55421;51.600;5.718;2023-11-18T08:50:37;6.22;91.30
68439;SHT31;55421;51.600;5.718;2023-11-18T08:53:07;6.24;91.31
68439;SHT31;55421;51.600;5.718;2023-11-18T08:55:35;6.25;91.30
68439;SHT31;55421;51.600;5.718;2023-11-18T08:58:05;6.27;91.32
68439;SHT31;55421;51.600;5.718;2023-11-18T09:00:53;6.30;91.35
68439;SHT31;55421;51.600;5.718;2023-11-18T09:03:25;6.31;91.35
68439;SHT31;55421;51.600;5.718;2023-11-18T09:06:01;6.35;91.40
68439;SHT31;55421;51.600;5.718;2023-11-18T09:08:44;6.38;91.40
68439;SHT31;55421;51.600;5.718;2023-11-18T09:11:13;6.41;91.40
68439;SHT31;55421;51.600;5.718;2023-11-18T09:13:44;6.44;91.40
68439;SHT31;55421;51.600;5.718;2023-11-18T09:16:17;6.47;91.40
68439;SHT31;55421;51.600;5.718;2023-11-18T09:18:44;6.51;91.40
68439;SHT31;55421;51.600;5.718;2023-11-18T09:21:14;6.54;91.39
68439;SHT31;55421;51.600;5.718;2023-11-18T09:23:41;6.57;91.40
68439;SHT31;55421;51.600;5.718;2023-11-18T09:26:09;6.60;91.35
68439;SHT31;55421;51.600;5.718;2023-11-18T09:28:37;6.62;91.32
68439;SHT31;55421;51.600;5.718;2023-11-18T09:31:04;6.66;91.32
68439;SHT31;55421;51.600;5.718;2023-11-18T09:33:32;6.70;91.30
68439;SHT31;55421;51.600;5.718;2023-11-18T09:36:00;6.72;91.30
68439;SHT31;55421;51.600;5.718;2023-11-18T09:38:38;6.74;91.27
68439;SHT31;55421;51.600;5.718;2023-11-18T09:41:07;6.76;91.24
68439;SHT31;55421;51.600;5.718;2023-11-18T09:43:42;6.78;91.22
68439;SHT31;55421;51.600;5.718;2023-11-18T09:46:14;6.80;91.21
68439;SHT31;55421;51.600;5.718;2023-11-18T09:49:32;6.83;91.20
68439;SHT31;55421;51.600;5.718;2023-11-18T09:51:59;6.85;91.20
68439;SHT31;55421;51.600;5.718;2023-11-18T09:54:39;6.87;91.20
68439;SHT31;55421;51.600;5.718;2023-11-18T09:57:32;6.90;91.21
68439;SHT31;55421;51.600;5.718;2023-11-18T10:00:06;6.91;91.21
68439;SHT31;55421;51.600;5.718;2023-11-18T10:02:47;6.94;91.21
68439;SHT31;55421;51.600;5.718;2023-11-18T10:05:17;6.97;91.23
68439;SHT31;55421;51.600;5.718;2023-11-18T10:07:52;6.99;91.23
68439;SHT31;55421;51.600;5.718;2023-11-18T10:10:19;7.01;91.26
68439;SHT31;55421;51.600;5.718;2023-11-18T10:12:48;7.03;91.29
68439;SHT31;55421;51.600;5.718;2023-11-18T10:15:20;7.06;91.30
68439;SHT31;55421;51.600;5.718;2023-11-18T10:17:51;7.09;91.30
68439;SHT31;55421;51.600;5.718;2023-11-18T10:23:19;7.14;91.29
68439;SHT31;55421;51.600;5.718;2023-11-18T10:25:49;7.18;91.29
68439;SHT31;55421;51.600;5.718;2023-11-18T10:28:23;7.21;91.24
68439;SHT31;55421;51.600;5.718;2023-11-18T10:31:07;7.24;91.20
68439;SHT31;55421;51.600;5.718;2023-11-18T10:33:38;7.26;91.25
68439;SHT31;55421;51.600;5.718;2023-11-18T10:36:19;7.28;91.27
68439;SHT31;55421;51.600;5.718;2023-11-18T10:38:50;7.30;91.30
68439;SHT31;55421;51.600;5.718;2023-11-18T10:41:19;7.32;91.31
68439;SHT31;55421;51.600;5.718;2023-11-18T10:43:46;7.33;91.32
68439;SHT31;55421;51.600;5.718;2023-11-18T10:46:15;7.35;91.37
68439;SHT31;55421;51.600;5.718;2023-11-18T10:48:43;7.38;91.40
68439;SHT31;55421;51.600;5.718;2023-11-18T10:51:16;7.40;91.47
68439;SHT31;55421;51.600;5.718;2023-11-18T10:53:52;7.42;91.50
68439;SHT31;55421;51.600;5.718;2023-11-18T10:56:24;7.44;91.50
68439;SHT31;55421;51.600;5.718;2023-11-18T10:58:55;7.46;91.54
68439;SHT31;55421;51.600;5.718;2023-11-18T11:04:00;7.49;91.60
68439;SHT31;55421;51.600;5.718;2023-11-18T11:06:31;7.51;91.60
68439;SHT31;55421;51.600;5.718;2023-11-18T11:08:59;7.53;91.60
68439;SHT31;55421;51.600;5.718;2023-11-18T11:11:28;7.55;91.63
68439;SHT31;55421;51.600;5.718;2023-11-18T11:14:06;7.56;91.69
68439;SHT31;55421;51.600;5.718;2023-11-18T11:16:52;7.58;91.70
68439;SHT31;55421;51.600;5.718;2023-11-18T11:19:46;7.60;91.71
68439;SHT31;55421;51.600;5.718;2023-11-18T11:22:39;7.61;91.71
68439;SHT31;55421;51.600;5.718;2023-11-18T11:25:25;7.61;91.70
68439;SHT31;55421;51.600;5.718;2023-11-18T11:28:06;7.62;91.70
68439;SHT31;55421;51.600;5.718;2023-11-18T11:30:44;7.61;91.70
68439;SHT31;55421;51.600;5.718;2023-11-18T11:33:33;7.63;91.70
68439;SHT31;55421;51.600;5.718;2023-11-18T11:36:15;7.63;91.73
68439;SHT31;55421;51.600;5.718;2023-11-18T11:38:52;7.64;91.76
68439;SHT31;55421;51.600;5.718;2023-11-18T11:41:23;7.66;91.82
68439;SHT31;55421;51.600;5.718;2023-11-18T11:43:53;7.67;91.81
68439;SHT31;55421;51.600;5.718;2023-11-18T11:46:25;7.68;91.89
68439;SHT31;55421;51.600;5.718;2023-11-18T11:49:03;7.68;91.90
68439;SHT31;55421;51.600;5.718;2023-11-18T11:51:45;7.70;91.90
68439;SHT31;55421;51.600;5.718;2023-11-18T11:54:26;7.70;91.90
68439;SHT31;55421;51.600;5.718;2023-11-18T11:56:57;7.72;91.92
68439;SHT31;55421;51.600;5.718;2023-11-18T11:59:35;7.74;92.00
68439;SHT31;55421;51.600;5.718;2023-11-18T12:02:22;7.77;92.03
68439;SHT31;55421;51.600;5.718;2023-11-18T12:04:55;7.80;92.07
68439;SHT31;55421;51.600;5.718;2023-11-18T12:07:25;7.84;92.10
68439;SHT31;55421;51.600;5.718;2023-11-18T12:09:58;7.88;92.15
68439;SHT31;55421;51.600;5.718;2023-11-18T12:12:26;7.92;92.17
68439;SHT31;55421;51.600;5.718;2023-11-18T12:14:54;7.94;92.19
68439;SHT31;55421;51.600;5.718;2023-11-18T12:23:16;8.01;92.18
68439;SHT31;55421;51.600;5.718;2023-11-18T12:25:49;8.03;92.20
68439;SHT31;55421;51.600;5.718;2023-11-18T12:28:26;8.06;92.20
68439;SHT31;55421;51.600;5.718;2023-11-18T12:31:03;8.07;92.19
68439;SHT31;55421;51.600;5.718;2023-11-18T12:36:32;8.09;92.20
68439;SHT31;55421;51.600;5.718;2023-11-18T12:42:35;8.13;92.18
68439;SHT31;55421;51.600;5.718;2023-11-18T12:48:32;8.14;92.17
68439;SHT31;55421;51.600;5.718;2023-11-18T12:51:06;8.15;92.14
68439;SHT31;55421;51.600;5.718;2023-11-18T12:53:36;8.15;92.14
68439;SHT31;55421;51.600;5.718;2023-11-18T12:56:06;8.15;92.14
68439;SHT31;55421;51.600;5.718;2023-11-18T12:58:32;8.16;92.13
68439;SHT31;55421;51.600;5.718;2023-11-18T13:00:59;8.17;92.13
68439;SHT31;55421;51.600;5.718;2023-11-18T13:03:26;8.17;92.17
68439;SHT31;55421;51.600;5.718;2023-11-18T13:05:56;8.18;92.11
68439;SHT31;55421;51.600;5.718;2023-11-18T13:08:22;8.19;92.11
68439;SHT31;55421;51.600;5.718;2023-11-18T13:10:50;8.20;92.12
68439;SHT31;55421;51.600;5.718;2023-11-18T13:13:18;8.20;92.11
68439;SHT31;55421;51.600;5.718;2023-11-18T13:15:46;8.20;92.10
68439;SHT31;55421;51.600;5.718;2023-11-18T13:18:16;8.20;92.10
68439;SHT31;55421;51.600;5.718;2023-11-18T13:20:53;8.21;92.10
68439;SHT31;55421;51.600;5.718;2023-11-18T13:23:26;8.22;92.17
68439;SHT31;55421;51.600;5.718;2023-11-18T13:25:56;8.23;92.16
68439;SHT31;55421;51.600;5.718;2023-11-18T13:28:26;8.23;92.15
68439;SHT31;55421;51.600;5.718;2023-11-18T13:30:53;8.23;92.12
68439;SHT31;55421;51.600;5.718;2023-11-18T13:33:20;8.26;92.10
68439;SHT31;55421;51.600;5.718;2023-11-18T13:35:47;8.27;92.04
68439;SHT31;55421;51.600;5.718;2023-11-18T13:38:15;8.29;92.00
68439;SHT31;55421;51.600;5.718;2023-11-18T13:40:45;8.31;91.99
68439;SHT31;55421;51.600;5.718;2023-11-18T13:43:13;8.31;91.96
68439;SHT31;55421;51.600;5.718;2023-11-18T13:45:40;8.31;91.94
68439;SHT31;55421;51.600;5.718;2023-11-18T13:48:08;8.31;91.93
68439;SHT31;55421;51.600;5.718;2023-11-18T13:50:40;8.29;91.91
68439;SHT31;55421;51.600;5.718;2023-11-18T13:53:09;8.28;91.96
68439;SHT31;55421;51.600;5.718;2023-11-18T13:55:36;8.26;91.99
68439;SHT31;55421;51.600;5.718;2023-11-18T13:58:05;8.25;92.00
68439;SHT31;55421;51.600;5.718;2023-11-18T14:00:32;8.23;92.00
68439;SHT31;55421;51.600;5.718;2023-11-18T14:02:59;8.22;92.05
68439;SHT31;55421;51.600;5.718;2023-11-18T14:05:25;8.21;92.10
68439;SHT31;55421;51.600;5.718;2023-11-18T14:07:52;8.20;92.10
68439;SHT31;55421;51.600;5.718;2023-11-18T14:10:26;8.19;92.14
68439;SHT31;55421;51.600;5.718;2023-11-18T14:13:06;8.17;92.19
68439;SHT31;55421;51.600;5.718;2023-11-18T14:15:35;8.16;92.20
68439;SHT31;55421;51.600;5.718;2023-11-18T14:18:02;8.15;92.28
68439;SHT31;55421;51.600;5.718;2023-11-18T14:20:30;8.14;92.30
68439;SHT31;55421;51.600;5.718;2023-11-18T14:23:02;8.15;92.35
68439;SHT31;55421;51.600;5.718;2023-11-18T14:25:32;8.15;92.40
68439;SHT31;55421;51.600;5.718;2023-11-18T14:28:00;8.14;92.40
68439;SHT31;55421;51.600;5.718;2023-11-18T14:30:28;8.14;92.44
68439;SHT31;55421;51.600;5.718;2023-11-18T14:32:57;8.15;92.48
68439;SHT31;55421;51.600;5.718;2023-11-18T14:35:24;8.16;92.50
68439;SHT31;55421;51.600;5.718;2023-11-18T14:37:50;8.15;92.50
68439;SHT31;55421;51.600;5.718;2023-11-18T14:40:17;8.16;92.59
68439;SHT31;55421;51.600;5.718;2023-11-18T14:42:47;8.16;92.60
68439;SHT31;55421;51.600;5.718;2023-11-18T14:45:17;8.16;92.62
68439;SHT31;55421;51.600;5.718;2023-11-18T14:47:44;8.17;92.62
68439;SHT31;55421;51.600;5.718;2023-11-18T14:50:12;8.17;92.64
68439;SHT31;55421;51.600;5.718;2023-11-18T14:52:47;8.19;92.67
68439;SHT31;55421;51.600;5.718;2023-11-18T14:55:17;8.19;92.69
68439;SHT31;55421;51.600;5.718;2023-11-18T14:57:44;8.20;92.71
68439;SHT31;55421;51.600;5.718;2023-11-18T15:00:11;8.22;92.78
68439;SHT31;55421;51.600;5.718;2023-11-18T15:02:48;8.22;92.79
68439;SHT31;55421;51.600;5.718;2023-11-18T15:05:16;8.22;92.76
68439;SHT31;55421;51.600;5.718;2023-11-18T15:07:45;8.23;92.80
68439;SHT31;55421;51.600;5.718;2023-11-18T15:10:22;8.24;92.80
68439;SHT31;55421;51.600;5.718;2023-11-18T15:12:54;8.26;92.81
68439;SHT31;55421;51.600;5.718;2023-11-18T15:15:28;8.25;92.83
68439;SHT31;55421;51.600;5.718;2023-11-18T15:18:06;8.27;92.88
68439;SHT31;55421;51.600;5.718;2023-11-18T15:20:35;8.28;92.88
68439;SHT31;55421;51.600;5.718;2023-11-18T15:23:03;8.27;92.89
68439;SHT31;55421;51.600;5.718;2023-11-18T15:25:30;8.29;92.90
68439;SHT31;55421;51.600;5.718;2023-11-18T15:27:57;8.30;92.92
68439;SHT31;55421;51.600;5.718;2023-11-18T15:30:24;8.31;92.97
68439;SHT31;55421;51.600;5.718;2023-11-18T15:32:51;8.31;93.00
68439;SHT31;55421;51.600;5.718;2023-11-18T15:35:18;8.32;93.01
68439;SHT31;55421;51.600;5.718;2023-11-18T15:37:47;8.33;93.07
68439;SHT31;55421;51.600;5.718;2023-11-18T15:40:14;8.34;93.09
68439;SHT31;55421;51.600;5.718;2023-11-18T15:42:46;8.35;93.09
68439;SHT31;55421;51.600;5.718;2023-11-18T15:45:20;8.38;93.07
68439;SHT31;55421;51.600;5.718;2023-11-18T15:47:50;8.40;93.02
68439;SHT31;55421;51.600;5.718;2023-11-18T15:50:18;8.42;93.04
68439;SHT31;55421;51.600;5.718;2023-11-18T15:52:48;8.44;93.00
68439;SHT31;55421;51.600;5.718;2023-11-18T15:55:16;8.48;93.01
68439;SHT31;55421;51.600;5.718;2023-11-18T15:57:45;8.49;93.02
68439;SHT31;55421;51.600;5.718;2023-11-18T16:00:22;8.52;93.02
68439;SHT31;55421;51.600;5.718;2023-11-18T16:02:51;8.54;93.03
68439;SHT31;55421;51.600;5.718;2023-11-18T16:05:21;8.55;93.02
68439;SHT31;55421;51.600;5.718;2023-11-18T16:07:53;8.56;93.05
68439;SHT31;55421;51.600;5.718;2023-11-18T16:10:22;8.57;93.09
68439;SHT31;55421;51.600;5.718;2023-11-18T16:12:51;8.56;93.10
68439;SHT31;55421;51.600;5.718;2023-11-18T16:15:23;8.57;93.14
68439;SHT31;55421;51.600;5.718;2023-11-18T16:17:55;8.57;93.17
68439;SHT31;55421;51.600;5.718;2023-11-18T16:20:24;8.58;93.20
68439;SHT31;55421;51.600;5.718;2023-11-18T16:22:53;8.58;93.22
68439;SHT31;55421;51.600;5.718;2023-11-18T16:25:24;8.59;93.30